Time;durP1;ratioP1;P1;durP2;ratioP2;P2;SDS_P1;SDS_P2;PMS_P1;PMS_P2;Temp;Humidity;BMP_temperature;BMP_pressure;BME280_temperature;BME280_humidity;BME280_pressure;Samples;Min_cycle;Max_cycle;Signal;HPM_P1;HPM_P2
2022/01/23 00:00:05;;;;;;;19.85;9.35;;;;;;;-5.02;93.96;101734.69;5034205;28;20100;-75
2022/01/23 00:02:35;;;;;;;19.95;9.20;;;;;;;-4.99;93.88;101737.91;5041909;28;20044;-75
2022/01/23 00:05:07;;;;;;;15.32;9.23;;;;;;;-4.98;93.81;101749.44;5042764;28;20040;-75
2022/01/23 00:07:33;;;;;;;16.02;8.75;;;;;;;-4.99;93.79;101747.75;5042334;28;20037;-75
2022/01/23 00:10:00;;;;;;;16.92;8.88;;;;;;;-4.99;94.41;101751.28;5038943;28;20084;-75
2022/01/23 00:12:28;;;;;;;16.80;8.80;;;;;;;-5.00;94.31;101748.75;5018745;28;20036;-75
2022/01/23 00:17:38;;;;;;;17.63;8.63;;;;;;;-4.95;94.27;101741.09;5031051;28;20397;-76
2022/01/23 00:20:06;;;;;;;16.80;9.43;;;;;;;-4.97;93.92;101748.44;5029951;28;20064;-75
2022/01/23 00:30:58;;;;;;;17.27;8.77;;;;;;;-5.16;94.05;101755.63;5048362;28;20577;-77
2022/01/23 00:33:24;;;;;;;18.73;9.45;;;;;;;-5.25;93.73;101755.69;5030107;28;20095;-76
2022/01/23 00:35:50;;;;;;;18.75;9.70;;;;;;;-5.35;92.97;101752.25;5034003;28;20083;-77
2022/01/23 00:38:17;;;;;;;19.33;9.30;;;;;;;-5.44;92.47;101753.97;5030871;28;20049;-77
2022/01/23 00:40:44;;;;;;;21.88;10.43;;;;;;;-5.52;91.67;101760.06;5038380;28;20523;-77
2022/01/23 00:43:31;;;;;;;17.02;8.90;;;;;;;-5.58;91.60;101759.81;5013312;28;20033;-77
2022/01/23 00:49:02;;;;;;;22.95;10.13;;;;;;;-5.67;91.12;101772.25;5013390;28;20033;-77
2022/01/23 00:51:32;;;;;;;18.83;10.02;;;;;;;-5.65;90.61;101774.75;5036402;28;20044;-76
2022/01/23 00:53:59;;;;;;;19.35;10.05;;;;;;;-5.66;90.90;101770.41;5047767;28;20041;-76
2022/01/23 00:56:25;;;;;;;19.45;10.00;;;;;;;-5.64;91.09;101765.75;5029672;28;20048;-74
2022/01/23 00:58:51;;;;;;;17.60;10.45;;;;;;;-5.61;90.95;101763.63;5047288;28;20033;-75
2022/01/23 01:01:16;;;;;;;18.55;9.50;;;;;;;-5.63;90.82;101741.53;5031002;28;20037;-75
2022/01/23 01:03:42;;;;;;;20.10;10.13;;;;;;;-5.69;90.76;101741.31;5034556;28;20041;-76
2022/01/23 01:06:08;;;;;;;18.55;9.63;;;;;;;-5.73;90.13;101730.03;5069561;28;20094;-76
2022/01/23 01:08:34;;;;;;;20.85;10.77;;;;;;;-5.76;90.07;101720.50;5029890;28;20087;-76
2022/01/23 01:35:32;;;;;;;17.90;9.25;;;;;;;-5.92;89.76;101779.09;5049758;28;20084;-76
2022/01/23 01:37:58;;;;;;;15.05;9.10;;;;;;;-5.91;89.39;101779.94;5037521;28;20048;-76
2022/01/23 01:40:25;;;;;;;16.15;8.80;;;;;;;-5.86;89.96;101783.84;5045755;28;20044;-76
2022/01/23 01:42:51;;;;;;;15.65;8.55;;;;;;;-5.81;89.74;101786.09;5036808;28;20120;-76
2022/01/23 01:45:23;;;;;;;17.02;8.55;;;;;;;-5.75;90.79;101788.16;5030139;28;20041;-76
2022/01/23 01:47:55;;;;;;;16.70;8.80;;;;;;;-5.69;90.20;101805.47;5030038;28;20575;-76
2022/01/23 01:50:21;;;;;;;14.15;8.20;;;;;;;-5.65;91.16;101802.34;5027097;28;20638;-76
2022/01/23 01:52:47;;;;;;;19.17;9.38;;;;;;;-5.59;91.06;101795.56;5032605;28;20044;-76
2022/01/23 01:55:22;;;;;;;18.92;8.50;;;;;;;-5.58;90.87;101807.94;5046585;28;20235;-76
2022/01/23 01:58:00;;;;;;;17.15;8.65;;;;;;;-5.58;91.98;101798.06;5011387;28;20039;-76
2022/01/23 02:00:47;;;;;;;14.85;7.65;;;;;;;-5.52;91.89;101804.69;5021646;28;20163;-76
2022/01/23 02:08:53;;;;;;;14.60;8.00;;;;;;;-5.59;92.15;101807.09;5007149;28;20030;-74
2022/01/23 02:23:28;;;;;;;13.05;7.32;;;;;;;-5.74;92.46;101840.63;5067761;28;20484;-74
2022/01/23 02:50:34;;;;;;;13.52;8.15;;;;;;;-5.70;91.81;101841.22;5039232;28;20037;-75
2022/01/23 02:53:33;;;;;;;15.27;8.07;;;;;;;-5.51;92.90;101854.50;5026933;28;20038;-75
2022/01/23 02:56:04;;;;;;;17.45;8.38;;;;;;;-5.50;93.05;101853.50;5027013;28;20057;-75
2022/01/23 02:58:47;;;;;;;17.00;8.57;;;;;;;-5.49;92.94;101856.03;5028379;28;20415;-75
2022/01/23 03:01:18;;;;;;;14.85;7.65;;;;;;;-5.49;93.28;101849.84;5011144;28;20045;-75
2022/01/23 03:04:09;;;;;;;15.70;8.30;;;;;;;-5.50;93.53;101849.00;5033033;28;20470;-75
2022/01/23 03:10:22;;;;;;;17.83;8.38;;;;;;;-5.54;92.64;101841.44;5032358;28;20042;-75
2022/01/23 03:15:02;;;;;;;14.75;7.85;;;;;;;-5.61;92.36;101875.06;5019571;28;20047;-76
2022/01/23 03:28:37;;;;;;;15.02;8.00;;;;;;;-5.47;92.18;101875.47;5029912;28;20048;-75
2022/01/23 03:33:31;;;;;;;14.05;7.57;;;;;;;-5.47;92.35;101877.28;5066415;28;20042;-76
2022/01/23 03:35:57;;;;;;;18.17;8.82;;;;;;;-5.50;92.90;101885.59;5045835;28;20038;-76
2022/01/23 03:38:22;;;;;;;15.10;7.95;;;;;;;-5.50;92.97;101894.47;5012249;28;20038;-76
2022/01/23 03:40:48;;;;;;;15.48;8.32;;;;;;;-5.48;92.59;101881.78;5036047;28;20038;-75
2022/01/23 03:43:15;;;;;;;15.50;7.70;;;;;;;-5.49;93.25;101884.63;5027315;28;20423;-76
2022/01/23 03:50:54;;;;;;;16.45;8.40;;;;;;;-5.49;93.19;101881.94;5047399;28;20511;-76
2022/01/23 03:53:39;;;;;;;18.67;8.30;;;;;;;-5.49;93.19;101896.16;5048964;28;20040;-75
2022/01/23 03:56:05;;;;;;;14.85;7.88;;;;;;;-5.50;92.93;101905.16;5031670;28;20052;-75
2022/01/23 03:58:33;;;;;;;17.88;9.48;;;;;;;-5.47;93.36;101902.19;5013925;28;20079;-75
2022/01/23 04:00:59;;;;;;;17.65;9.30;;;;;;;-5.48;93.03;101900.50;5071977;28;20037;-75
2022/01/23 04:03:26;;;;;;;17.10;9.10;;;;;;;-5.50;93.01;101909.69;5030646;28;20044;-75
2022/01/23 04:05:52;;;;;;;15.98;8.82;;;;;;;-5.51;93.35;101900.81;5064836;28;20518;-75
2022/01/23 04:08:19;;;;;;;16.20;8.95;;;;;;;-5.55;93.05;101906.59;5038398;28;20041;-75
2022/01/23 04:10:46;;;;;;;12.40;7.50;;;;;;;-5.56;93.51;101905.72;5023758;28;20148;-75
2022/01/23 04:13:24;;;;;;;16.63;9.57;;;;;;;-5.55;93.47;101894.06;5041249;28;20559;-75
2022/01/23 04:32:24;;;;;;;16.38;8.77;;;;;;;-5.55;93.86;101893.22;5043564;28;20037;-75
2022/01/23 04:45:41;;;;;;;19.65;9.48;;;;;;;-5.60;92.92;101892.81;5037408;28;20458;-75
2022/01/23 05:04:31;;;;;;;16.70;8.57;;;;;;;-5.67;92.77;101937.16;5035440;28;20518;-75
2022/01/23 05:07:17;;;;;;;15.48;8.25;;;;;;;-5.66;92.69;101947.72;5031961;28;20467;-75
2022/01/23 05:10:18;;;;;;;15.68;8.38;;;;;;;-5.64;93.71;101943.06;5028989;28;20080;-75
2022/01/23 05:12:50;;;;;;;14.00;7.38;;;;;;;-5.64;93.37;101945.72;5023072;28;20037;-75
2022/01/23 05:15:16;;;;;;;16.25;8.00;;;;;;;-5.63;92.86;101954.59;5038246;28;20041;-75
2022/01/23 05:17:42;;;;;;;17.25;8.57;;;;;;;-5.64;92.66;101958.25;5029551;28;20097;-75
2022/01/23 05:20:08;;;;;;;15.35;8.30;;;;;;;-5.67;93.63;101969.25;5032191;28;20056;-74
2022/01/23 05:22:43;;;;;;;14.52;8.25;;;;;;;-5.71;92.27;101975.88;5033811;28;20470;-76
2022/01/23 05:27:44;;;;;;;13.95;7.45;;;;;;;-5.73;92.40;101981.34;5012550;28;20042;-75
2022/01/23 05:30:09;;;;;;;13.88;8.52;;;;;;;-5.76;92.42;101995.81;5069265;28;20155;-75
2022/01/23 05:32:40;;;;;;;15.63;8.30;;;;;;;-5.77;92.00;101999.50;5020336;28;20040;-75
2022/01/23 05:35:07;;;;;;;15.07;8.13;;;;;;;-5.82;92.07;102009.78;5028979;28;20033;-75
2022/01/23 05:37:37;;;;;;;14.50;8.25;;;;;;;-5.83;91.71;102007.25;5008845;28;20394;-75
2022/01/23 05:40:06;;;;;;;13.38;7.57;;;;;;;-5.90;91.45;102015.03;5034100;28;20139;-74
2022/01/23 05:42:34;;;;;;;14.00;7.97;;;;;;;-5.90;90.45;102008.81;5015912;28;20099;-76
2022/01/23 05:45:00;;;;;;;12.82;7.28;;;;;;;-5.97;90.84;102005.84;5038673;28;20049;-75
2022/01/23 05:47:26;;;;;;;13.50;8.00;;;;;;;-5.98;90.56;101997.97;5037942;28;20461;-76
2022/01/23 05:49:56;;;;;;;12.88;8.10;;;;;;;-6.01;90.43;101987.56;5029348;28;20056;-75
2022/01/23 05:52:35;;;;;;;14.85;7.68;;;;;;;-5.99;91.01;101986.44;5030346;28;20050;-76
2022/01/23 05:55:17;;;;;;;12.88;7.15;;;;;;;-5.96;90.92;101982.66;5041242;28;20640;-76
2022/01/23 05:57:56;;;;;;;17.42;8.57;;;;;;;-5.97;91.57;101988.97;5017739;28;20068;-77
2022/01/23 06:00:30;;;;;;;12.98;7.28;;;;;;;-5.97;91.46;101988.97;5027054;28;20030;-76
2022/01/23 06:03:02;;;;;;;12.93;7.40;;;;;;;-5.97;90.88;101983.63;5023867;28;20046;-77
2022/01/23 06:05:36;;;;;;;13.15;7.40;;;;;;;-5.98;90.94;101981.94;5014664;28;20454;-75
2022/01/23 06:08:05;;;;;;;;;;;;;;;-6.02;90.41;101980.56;5029492;28;20051;-75
2022/01/23 06:10:46;;;;;;;12.68;6.45;;;;;;;-6.04;90.56;101983.38;5030696;28;19920;-76
2022/01/23 06:13:12;;;;;;;13.00;7.07;;;;;;;-6.01;90.64;101983.06;5024870;28;20051;-76
2022/01/23 06:15:37;;;;;;;11.65;6.78;;;;;;;-5.98;90.53;101988.13;5033628;28;20116;-76
2022/01/23 06:18:03;;;;;;;13.20;8.15;;;;;;;-6.01;90.52;101983.06;5026049;28;20128;-76
2022/01/23 06:20:47;;;;;;;13.52;7.28;;;;;;;-6.03;90.43;101982.38;5028615;28;20585;-75
2022/01/23 06:23:33;;;;;;;13.35;7.78;;;;;;;-6.10;90.11;101991.91;5033584;28;20061;-75
2022/01/23 06:26:18;;;;;;;12.88;7.45;;;;;;;-6.11;89.65;101990.22;5033818;28;20514;-76
2022/01/23 06:28:55;;;;;;;12.50;7.43;;;;;;;-6.10;89.69;102005.28;5013997;28;20045;-75
2022/01/23 06:31:21;;;;;;;13.50;7.80;;;;;;;-6.10;89.32;102000.78;5030776;28;20037;-75
2022/01/23 06:33:46;;;;;;;12.48;7.35;;;;;;;-6.06;90.31;102001.38;5016504;28;20038;-75
2022/01/23 06:36:13;;;;;;;15.73;7.32;;;;;;;-6.04;90.42;101988.72;5035618;28;20129;-76
2022/01/23 06:38:39;;;;;;;14.20;7.75;;;;;;;-6.06;89.89;101997.84;5031157;28;20046;-74
2022/01/23 06:41:05;;;;;;;13.15;7.30;;;;;;;-6.10;90.66;101986.56;5026461;28;20408;-76
2022/01/23 06:43:54;;;;;;;13.10;7.45;;;;;;;-6.10;90.63;101987.41;5028176;28;20045;-75
2022/01/23 06:46:27;;;;;;;14.52;7.80;;;;;;;-6.05;90.25;101987.03;5036508;28;20118;-78
2022/01/23 06:48:53;;;;;;;15.18;8.23;;;;;;;-6.06;90.91;101982.66;5041267;28;20136;-78
2022/01/23 06:51:19;;;;;;;14.80;8.30;;;;;;;-6.05;91.07;101992.38;5038600;28;20049;-77
2022/01/23 06:53:45;;;;;;;14.73;8.73;;;;;;;-6.10;90.40;102007.94;5014817;28;20470;-75
2022/01/23 06:56:11;;;;;;;15.73;8.27;;;;;;;-6.21;90.41;102006.25;5023065;28;20124;-75
2022/01/23 06:58:37;;;;;;;16.08;9.35;;;;;;;-6.32;89.76;102018.88;5017173;28;20046;-76
2022/01/23 07:01:07;;;;;;;18.83;9.18;;;;;;;-6.38;89.88;102023.81;5012184;28;20417;-77
2022/01/23 07:03:48;;;;;;;18.05;8.32;;;;;;;-6.36;89.83;102028.16;5033855;28;20034;-75
2022/01/23 07:06:45;;;;;;;18.45;9.55;;;;;;;-6.33;89.78;102034.06;5027607;28;20045;-75
2022/01/23 07:09:18;;;;;;;16.25;9.20;;;;;;;-6.28;90.46;102018.47;5039726;28;20041;-76
2022/01/23 07:12:16;;;;;;;15.85;8.57;;;;;;;-6.24;89.86;102024.41;5025052;28;20049;-76
2022/01/23 07:15:00;;;;;;;18.40;9.48;;;;;;;-6.22;90.74;102033.97;5043830;28;20068;-77
2022/01/23 07:17:42;;;;;;;15.90;8.82;;;;;;;-6.17;90.68;102031.72;5052146;28;20053;-76
2022/01/23 07:20:23;;;;;;;15.30;8.05;;;;;;;-6.27;90.25;102032.66;5011990;28;20057;-76
2022/01/23 07:22:51;;;;;;;13.98;8.23;;;;;;;-6.26;89.50;102027.19;5024291;28;20065;-77
2022/01/23 07:25:16;;;;;;;16.80;9.35;;;;;;;-6.29;89.90;102016.78;5059561;28;20080;-77
2022/01/23 07:27:55;;;;;;;16.92;8.63;;;;;;;-6.31;90.29;102025.91;5043261;28;20083;-77
2022/01/23 07:32:52;;;;;;;14.25;8.05;;;;;;;-6.34;90.06;102044.88;5035930;28;20079;-77
2022/01/23 07:35:18;;;;;;;13.82;8.40;;;;;;;-6.34;89.54;102050.22;5039575;28;20077;-74
2022/01/23 07:37:45;;;;;;;17.63;9.38;;;;;;;-6.33;89.84;102054.59;5031530;28;20046;-76
2022/01/23 07:40:33;;;;;;;17.00;9.70;;;;;;;-6.27;88.51;102046.03;5014241;28;20489;-76
2022/01/23 07:42:59;;;;;;;21.55;10.25;;;;;;;-6.18;89.52;102031.84;5029261;28;20041;-76
2022/01/23 07:45:54;;;;;;;18.38;9.80;;;;;;;-5.98;89.91;102030.91;5049328;28;20446;-76
2022/01/23 07:48:38;;;;;;;18.33;10.25;;;;;;;-5.90;88.79;102040.88;5042808;28;20044;-76
2022/01/23 07:51:33;;;;;;;19.73;10.15;;;;;;;-5.77;89.27;102042.25;5011932;28;20054;-76
2022/01/23 07:54:22;;;;;;;;;;;;;;;-5.65;88.98;102056.34;5029259;28;20132;-76
2022/01/23 07:56:56;;;;;;;22.17;10.50;;;;;;;-5.59;89.42;102057.59;5057638;28;20414;-76
2022/01/23 07:59:53;;;;;;;19.75;10.68;;;;;;;-5.46;89.19;102068.88;5024493;28;20052;-76
2022/01/23 08:02:38;;;;;;;18.35;10.25;;;;;;;-5.47;89.61;102067.19;5035930;28;20037;-76
2022/01/23 08:05:22;;;;;;;21.35;10.93;;;;;;;-5.43;88.82;102068.56;5039283;28;20053;-76
2022/01/23 08:08:02;;;;;;;19.27;9.82;;;;;;;-5.30;88.60;102066.47;5030274;28;20562;-76
2022/01/23 08:10:47;;;;;;;18.10;10.32;;;;;;;-5.10;89.20;102067.28;5018224;28;20038;-76
2022/01/23 08:13:13;;;;;;;17.88;10.05;;;;;;;-4.91;88.82;102077.09;5038480;28;20121;-76
2022/01/23 08:15:38;;;;;;;20.67;10.30;;;;;;;-4.92;89.31;102081.59;5045930;28;20045;-76
2022/01/23 08:18:06;;;;;;;20.92;10.13;;;;;;;-5.00;89.17;102088.66;5039662;28;20048;-76
2022/01/23 08:20:33;;;;;;;21.05;10.82;;;;;;;-5.19;88.68;102090.41;5037427;28;20057;-75
2022/01/23 08:23:01;;;;;;;18.70;10.38;;;;;;;-5.36;88.92;102091.13;5042526;28;20037;-75
2022/01/23 08:25:30;;;;;;;18.95;10.32;;;;;;;-5.40;89.68;102097.72;5031495;28;20045;-76
2022/01/23 08:27:56;;;;;;;20.25;10.82;;;;;;;-5.50;88.87;102110.25;5026181;28;20061;-76
2022/01/23 08:30:22;;;;;;;18.88;10.15;;;;;;;-5.64;89.04;102099.97;5017089;28;20088;-76
2022/01/23 08:32:48;;;;;;;18.67;9.45;;;;;;;-5.67;88.48;102108.28;5030391;28;20041;-76
2022/01/23 08:35:14;;;;;;;21.25;10.07;;;;;;;-5.77;88.64;102118.94;5028283;28;20041;-76
2022/01/23 08:37:40;;;;;;;23.67;10.75;;;;;;;-5.83;88.66;102111.50;5028918;28;20475;-77
2022/01/23 08:40:16;;;;;;;18.67;9.90;;;;;;;-5.81;88.08;102114.88;5043276;28;20045;-76
2022/01/23 08:42:42;;;;;;;19.73;10.50;;;;;;;-5.83;87.79;102108.81;5051535;28;20626;-77
2022/01/23 08:45:08;;;;;;;20.67;9.98;;;;;;;-5.80;88.33;102114.72;5050150;28;20132;-78
2022/01/23 08:47:34;;;;;;;28.30;11.48;;;;;;;-5.82;88.26;102111.34;5036135;28;20049;-78
2022/01/23 08:49:59;;;;;;;22.38;10.75;;;;;;;-5.83;88.78;102122.19;5030956;28;20038;-78
2022/01/23 08:52:25;;;;;;;21.17;10.73;;;;;;;-5.85;88.64;102122.31;5035468;28;20503;-78
2022/01/23 08:54:56;;;;;;;20.52;10.35;;;;;;;-5.87;88.45;102124.28;5030403;28;20073;-78
2022/01/23 08:57:22;;;;;;;21.30;10.88;;;;;;;-5.93;88.94;102124.00;5031688;28;20120;-78
2022/01/23 08:59:48;;;;;;;20.90;10.75;;;;;;;-5.99;88.64;102121.91;5036912;28;20526;-80
2022/01/23 09:02:15;;;;;;;21.42;10.77;;;;;;;-5.98;89.20;102129.78;5028854;28;20078;-78
2022/01/23 09:04:40;;;;;;;20.38;9.68;;;;;;;-5.95;88.74;102109.94;5043582;28;20037;-79
2022/01/23 09:07:06;;;;;;;18.67;9.90;;;;;;;-5.96;88.44;102113.59;5030118;28;20128;-77
2022/01/23 09:09:37;;;;;;;19.70;10.10;;;;;;;-6.02;88.51;102115.00;5028106;28;20033;-79
2022/01/23 09:12:25;;;;;;;17.90;9.75;;;;;;;-6.03;88.44;102121.31;5032022;28;20041;-78
2022/01/23 09:14:51;;;;;;;19.30;10.70;;;;;;;-6.01;88.48;102127.38;5029611;28;20132;-78
2022/01/23 09:17:17;;;;;;;21.52;10.95;;;;;;;-6.04;87.93;102134.81;5032066;28;20087;-78
2022/01/23 09:19:46;;;;;;;15.45;9.32;;;;;;;-6.04;87.85;102143.69;5024740;28;20148;-79
2022/01/23 09:22:12;;;;;;;19.77;10.82;;;;;;;-6.03;87.76;102144.53;5045091;28;20046;-78
2022/01/23 09:24:38;;;;;;;20.17;10.57;;;;;;;-6.03;87.54;102155.22;5025003;28;20095;-80
2022/01/23 09:27:06;;;;;;;16.90;9.75;;;;;;;-6.04;87.21;102143.69;5042813;28;20112;-80
2022/01/23 09:29:39;;;;;;;21.73;10.67;;;;;;;-6.00;87.78;102142.44;5033327;28;20037;-79
2022/01/23 09:32:10;;;;;;;21.48;10.32;;;;;;;-5.99;88.11;102146.78;5029665;28;20300;-77
2022/01/23 09:34:36;;;;;;;19.60;9.02;;;;;;;-6.01;88.61;102143.41;5029465;28;20049;-77
2022/01/23 09:37:07;;;;;;;18.98;9.95;;;;;;;-6.11;87.37;102142.53;5029322;28;20120;-77
2022/01/23 09:39:34;;;;;;;18.17;9.63;;;;;;;-6.09;88.64;102146.75;5030682;28;20042;-77
2022/01/23 09:42:01;;;;;;;22.02;10.82;;;;;;;-6.13;88.17;102137.31;5029079;28;20417;-76
2022/01/23 09:44:31;;;;;;;23.00;11.02;;;;;;;-6.18;87.80;102139.56;5029390;28;20065;-78
2022/01/23 09:46:57;;;;;;;;;;;;;;;-6.24;87.45;102128.59;5063828;28;20030;-80
2022/01/23 09:49:25;;;;;;;18.98;10.52;;;;;;;-6.29;87.78;102131.63;5033883;28;20417;-79
2022/01/23 09:51:52;;;;;;;20.60;10.60;;;;;;;-6.25;87.49;102118.84;5061141;28;20037;-79
2022/01/23 09:54:18;;;;;;;23.27;10.75;;;;;;;-6.24;87.82;102107.22;5028885;28;20080;-78
2022/01/23 09:56:44;;;;;;;20.55;10.43;;;;;;;-6.22;88.61;102113.25;5029153;28;20095;-77
2022/01/23 09:59:14;;;;;;;20.15;9.82;;;;;;;-6.21;87.05;102112.28;5030080;28;20037;-78
2022/01/23 10:01:41;;;;;;;22.33;10.68;;;;;;;-6.19;87.50;102108.47;5003130;28;20034;-79
2022/01/23 10:04:08;;;;;;;17.45;9.45;;;;;;;-6.14;87.36;102108.06;5033631;28;20037;-80
2022/01/23 10:06:34;;;;;;;20.58;10.05;;;;;;;-6.11;87.49;102099.78;5030009;28;20072;-79
2022/01/23 10:09:00;;;;;;;20.05;10.02;;;;;;;-6.06;87.72;102094.88;5033405;28;20057;-82
2022/01/23 10:11:29;;;;;;;19.60;9.88;;;;;;;-6.05;88.26;102096.56;5061803;28;20049;-82
2022/01/23 10:13:55;;;;;;;;;;;;;;;-6.22;87.10;102100.75;5050246;28;20044;-78
2022/01/23 10:16:21;;;;;;;18.60;9.07;;;;;;;-6.32;86.90;102091.84;5033127;28;19917;-81
2022/01/23 10:18:47;;;;;;;17.88;9.55;;;;;;;-6.33;86.93;102098.16;5033035;28;20499;-81
2022/01/23 10:21:14;;;;;;;16.90;8.65;;;;;;;-6.33;87.34;102092.81;5049577;28;20415;-78
2022/01/23 10:23:40;;;;;;;18.52;8.30;;;;;;;-6.29;86.77;102101.41;5042405;28;20033;-79
2022/01/23 10:26:06;;;;;;;16.00;8.80;;;;;;;-6.30;86.93;102099.72;5031557;28;20061;-80
2022/01/23 10:28:34;;;;;;;16.60;8.07;;;;;;;-6.27;88.04;102104.78;5048998;28;20040;-79
2022/01/23 10:31:03;;;;;;;17.30;8.43;;;;;;;-6.26;88.04;102096.63;5031542;28;20044;-78
2022/01/23 10:33:36;;;;;;;17.02;8.20;;;;;;;-6.28;87.62;102106.63;5033236;28;20510;-77
2022/01/23 10:36:09;;;;;;;16.50;8.23;;;;;;;-6.27;88.13;102104.78;5022780;28;20156;-78
2022/01/23 10:38:49;;;;;;;15.02;8.00;;;;;;;-6.27;87.40;102110.13;5014833;28;20038;-81
2022/01/23 10:50:00;;;;;;;14.63;7.10;;;;;;;-6.19;87.91;102094.28;5036018;28;20034;-77
2022/01/23 10:52:30;;;;;;;16.02;7.00;;;;;;;-6.20;88.04;102103.28;5032718;28;20049;-75
2022/01/23 10:54:56;;;;;;;20.13;9.63;;;;;;;-6.16;87.74;102118.03;5036836;28;20104;-76
2022/01/23 10:57:22;;;;;;;20.80;9.68;;;;;;;-6.10;88.87;102120.16;5031408;28;20029;-79
2022/01/23 10:59:49;;;;;;;20.15;10.10;;;;;;;-6.07;88.30;102117.25;5035499;28;20043;-79
2022/01/23 11:02:21;;;;;;;19.42;9.50;;;;;;;-6.02;87.88;102120.34;5020204;28;20033;-79
2022/01/23 11:05:03;;;;;;;22.48;10.82;;;;;;;-5.96;88.35;102129.63;5031740;28;20349;-78
2022/01/23 11:07:30;;;;;;;20.95;11.13;;;;;;;-5.94;88.97;102117.81;5030000;28;20454;-78
2022/01/23 11:09:58;;;;;;;20.95;10.93;;;;;;;-5.91;88.86;102120.22;5033295;28;20038;-80
2022/01/23 11:18:05;;;;;;;23.88;11.63;;;;;;;-5.86;89.07;102107.25;5062706;28;20443;-82
2022/01/23 11:20:45;;;;;;;19.92;10.30;;;;;;;-5.88;88.63;102117.25;5012120;28;20052;-81
2022/01/23 11:23:17;;;;;;;20.00;10.80;;;;;;;-5.88;87.98;102119.94;5062016;28;20041;-80
2022/01/23 11:25:52;;;;;;;19.92;10.18;;;;;;;-5.82;88.82;102119.38;5064361;28;20128;-79
2022/01/23 11:28:19;;;;;;;21.45;9.75;;;;;;;-5.74;88.20;102136.53;5036957;28;20040;-79
2022/01/23 11:30:47;;;;;;;17.58;9.18;;;;;;;-5.70;88.98;102135.28;5033741;28;20038;-82
2022/01/23 11:33:16;;;;;;;19.20;9.40;;;;;;;-5.66;88.15;102131.34;5043723;28;20099;-82
2022/01/23 11:35:43;;;;;;;20.98;10.27;;;;;;;-5.63;87.96;102133.75;5032297;28;20124;-76
2022/01/23 11:38:15;;;;;;;17.20;9.55;;;;;;;-5.58;89.09;102137.69;5031368;28;20116;-77
2022/01/23 11:54:01;;;;;;;18.38;9.95;;;;;;;-5.48;88.79;102143.06;5032413;28;20534;-76
2022/01/23 11:59:42;;;;;;;16.88;9.30;;;;;;;-5.36;89.11;102143.78;5030832;28;20061;-75
2022/01/23 12:02:16;;;;;;;17.27;10.27;;;;;;;-5.41;89.52;102141.50;5032745;28;20068;-75
2022/01/23 12:04:43;;;;;;;20.23;10.10;;;;;;;-5.42;89.26;102133.63;5038187;28;20144;-76
2022/01/23 12:07:09;;;;;;;19.77;9.85;;;;;;;-5.40;88.74;102147.69;5024534;28;20038;-78
2022/01/23 12:09:35;;;;;;;18.65;9.93;;;;;;;-5.40;89.82;102151.22;5043563;28;20067;-89
2022/01/23 12:17:16;;;;;;;17.35;9.98;;;;;;;-5.51;88.32;102156.72;5016803;28;20595;-91
2022/01/23 12:19:45;;;;;;;16.70;9.52;;;;;;;-5.49;88.75;102154.75;5050121;28;20510;-84
2022/01/23 12:22:28;;;;;;;18.15;10.15;;;;;;;-5.43;88.46;102156.84;5033627;28;20038;-93
2022/01/23 12:24:56;;;;;;;21.98;10.55;;;;;;;-5.36;88.34;102157.16;5038320;28;20042;-85
2022/01/23 12:27:27;;;;;;;17.25;9.90;;;;;;;-5.28;89.04;102159.94;5034586;28;20087;-93
2022/01/23 12:29:55;;;;;;;20.52;9.77;;;;;;;-5.26;89.13;102156.16;5016526;28;20069;-92
2022/01/23 12:32:29;;;;;;;20.40;10.05;;;;;;;-5.20;89.37;102160.97;5038575;28;20128;-88
2022/01/23 12:35:01;;;;;;;18.95;10.43;;;;;;;-5.13;89.67;102165.72;5029554;28;20133;-88
2022/01/23 12:37:58;;;;;;;18.65;10.18;;;;;;;-5.19;89.48;102151.94;5047147;28;20080;-88
2022/01/23 12:40:40;;;;;;;19.15;10.63;;;;;;;-5.17;89.84;102154.47;5037952;28;20041;-90
2022/01/23 12:43:10;;;;;;;23.13;10.60;;;;;;;-5.12;90.03;102146.00;5033965;28;20051;-84
2022/01/23 12:45:44;;;;;;;18.55;10.45;;;;;;;-5.17;90.05;102139.25;5049110;28;20086;-86
2022/01/23 12:48:25;;;;;;;19.63;10.38;;;;;;;-5.17;89.94;102143.78;5045189;28;20033;-88
2022/01/23 12:50:55;;;;;;;18.50;10.90;;;;;;;-5.14;90.38;102137.28;5033691;28;20482;-88
2022/01/23 12:53:20;;;;;;;;;;;;;;;-5.11;90.42;102132.50;5032058;28;20037;-77
2022/01/23 12:56:07;;;;;;;22.88;11.13;;;;;;;-5.08;90.33;102123.31;5027233;28;19939;-77
2022/01/23 12:58:34;;;;;;;21.55;11.93;;;;;;;-5.05;90.38;102123.88;5033979;28;20037;-77
2022/01/23 13:01:01;;;;;;;21.10;11.00;;;;;;;-5.04;90.22;102130.91;5028479;28;20057;-77
2022/01/23 13:03:27;;;;;;;23.52;11.82;;;;;;;-5.08;91.04;102131.34;5043696;28;20080;-78
2022/01/23 13:05:53;;;;;;;21.35;11.45;;;;;;;-5.16;90.96;102130.25;5031185;28;20045;-77
2022/01/23 13:08:24;;;;;;;20.83;11.18;;;;;;;-5.18;91.21;102137.56;5030951;28;20041;-76
2022/01/23 13:13:47;;;;;;;23.27;11.45;;;;;;;-5.16;91.31;102140.09;5030553;28;20037;-79
2022/01/23 13:32:08;;;;;;;18.85;10.07;;;;;;;-5.25;91.25;102117.69;5002071;28;20052;-78
2022/01/23 13:34:37;;;;;;;19.38;10.57;;;;;;;-5.29;91.07;102124.31;5029330;28;20029;-80
2022/01/23 13:37:15;;;;;;;19.15;10.90;;;;;;;-5.30;91.19;102121.78;5029395;28;20114;-79
2022/01/23 13:39:54;;;;;;;17.38;10.05;;;;;;;-5.26;91.65;102133.91;5034143;28;20795;-79
2022/01/23 13:53:50;;;;;;;19.55;8.75;;;;;;;-5.12;92.30;102119.25;5033142;28;20059;-78
2022/01/23 13:59:24;;;;;;;14.65;7.80;;;;;;;-5.14;91.60;102110.53;5029475;28;20034;-80
2022/01/23 14:04:34;;;;;;;11.35;6.03;;;;;;;-5.10;91.26;102112.75;5021745;28;20041;-79
2022/01/23 14:07:00;;;;;;;9.35;4.82;;;;;;;-5.09;91.72;102119.81;5053769;28;20569;-80
2022/01/23 14:09:26;;;;;;;9.00;4.65;;;;;;;-5.07;91.25;102111.63;5049249;28;20044;-80
2022/01/23 14:11:53;;;;;;;11.07;4.93;;;;;;;-5.07;91.30;102107.13;5047767;28;20079;-80
2022/01/23 14:14:27;;;;;;;9.60;4.88;;;;;;;-5.05;90.63;102123.03;5042155;28;20037;-80
2022/01/23 14:16:55;;;;;;;11.32;5.05;;;;;;;-5.01;90.85;102125.31;5035191;28;20037;-80
2022/01/23 14:19:23;;;;;;;7.05;3.90;;;;;;;-5.01;90.99;102111.06;5045938;28;20537;-79
2022/01/23 14:21:56;;;;;;;11.98;5.55;;;;;;;-5.01;91.12;102117.28;5054656;28;20135;-78
2022/01/23 14:24:33;;;;;;;7.25;3.42;;;;;;;-5.00;90.69;102129.66;5033596;28;20037;-79
2022/01/23 14:27:06;;;;;;;6.63;3.92;;;;;;;-5.03;90.39;102129.09;5019379;28;20886;-79
2022/01/23 14:29:50;;;;;;;12.32;4.97;;;;;;;-5.03;91.22;102129.09;5039603;28;20041;-78
2022/01/23 14:32:39;;;;;;;10.18;4.53;;;;;;;-5.00;90.74;102128.81;5034470;28;20052;-78
2022/01/23 14:35:06;;;;;;;11.02;4.28;;;;;;;-5.04;90.50;102132.75;5032362;28;20124;-77
2022/01/23 14:37:33;;;;;;;10.25;5.20;;;;;;;-5.04;90.56;102138.94;5032348;28;20045;-76
2022/01/23 14:40:23;;;;;;;8.23;3.58;;;;;;;-5.04;90.76;102138.09;5025486;28;20092;-76
2022/01/23 14:43:18;;;;;;;11.18;4.63;;;;;;;-5.07;91.21;102133.03;5020275;28;20047;-75
2022/01/23 14:45:45;;;;;;;6.32;4.03;;;;;;;-5.05;90.45;102131.06;5028682;28;20037;-76
2022/01/23 14:48:12;;;;;;;9.45;4.85;;;;;;;-5.07;90.98;102130.38;5033933;28;20041;-78
2022/01/23 14:50:40;;;;;;;8.43;3.80;;;;;;;-5.06;90.62;102151.63;5032156;28;20486;-79
2022/01/23 14:53:15;;;;;;;8.55;4.35;;;;;;;-5.08;90.26;102142.91;5033434;28;20265;-78
2022/01/23 14:55:50;;;;;;;10.65;5.07;;;;;;;-5.09;90.53;102124.31;5034922;28;20033;-78
2022/01/23 14:58:21;;;;;;;7.85;4.35;;;;;;;-5.09;89.88;102124.31;5033193;28;20139;-77
2022/01/23 15:00:53;;;;;;;8.23;4.00;;;;;;;-5.10;90.19;102127.97;5030077;28;20033;-75
2022/01/23 15:03:20;;;;;;;9.00;5.00;;;;;;;-5.09;90.45;102135.88;5033737;28;20088;-77
2022/01/23 15:05:46;;;;;;;6.72;3.58;;;;;;;-5.08;90.77;102134.03;5049265;28;20241;-76
2022/01/23 15:08:15;;;;;;;8.07;4.22;;;;;;;-5.11;90.57;102131.63;5031109;28;20128;-77
2022/01/23 15:10:43;;;;;;;9.25;4.45;;;;;;;-5.11;90.12;102137.00;5033344;28;20041;-76
2022/01/23 15:13:11;;;;;;;9.30;4.43;;;;;;;-5.11;90.25;102137.00;5030758;28;20042;-77
2022/01/23 15:15:36;;;;;;;9.48;3.28;;;;;;;-5.13;90.32;102137.13;5031260;28;20044;-76
2022/01/23 15:18:03;;;;;;;7.60;3.72;;;;;;;-5.12;89.75;102140.66;5032704;28;20038;-78
2022/01/23 15:20:30;;;;;;;7.35;3.80;;;;;;;-5.12;90.27;102130.78;5046040;28;20500;-77